sensor_id;sensor_type;location;lat;lon;timestamp;temperature;humidity
64198;SHT31;50512;53.666;9.700;2023-07-20T00:01:11;13.77;97.10
64198;SHT31;50512;53.666;9.700;2023-07-20T00:03:38;13.90;97.71
64198;SHT31;50512;53.666;9.700;2023-07-20T00:06:05;13.93;97.19
64198;SHT31;50512;53.666;9.700;2023-07-20T00:08:31;13.91;97.30
64198;SHT31;50512;53.666;9.700;2023-07-20T00:10:58;13.90;97.96
64198;SHT31;50512;53.666;9.700;2023-07-20T00:13:24;13.85;98.06
64198;SHT31;50512;53.666;9.700;2023-07-20T00:15:52;13.87;98.63
64198;SHT31;50512;53.666;9.700;2023-07-20T00:18:18;13.80;98.12
64198;SHT31;50512;53.666;9.700;2023-07-20T00:20:46;13.84;98.79
64198;SHT31;50512;53.666;9.700;2023-07-20T00:23:13;13.81;98.86
64198;SHT31;50512;53.666;9.700;2023-07-20T00:25:39;13.80;99.06
64198;SHT31;50512;53.666;9.700;2023-07-20T00:28:05;13.83;99.58
64198;SHT31;50512;53.666;9.700;2023-07-20T00:30:32;13.78;99.83
64198;SHT31;50512;53.666;9.700;2023-07-20T00:33:00;13.77;99.84
64198;SHT31;50512;53.666;9.700;2023-07-20T00:35:26;13.71;99.72
64198;SHT31;50512;53.666;9.700;2023-07-20T00:37:53;13.73;99.54
64198;SHT31;50512;53.666;9.700;2023-07-20T00:40:19;13.73;99.67
64198;SHT31;50512;53.666;9.700;2023-07-20T00:42:46;13.88;99.99
64198;SHT31;50512;53.666;9.700;2023-07-20T00:45:12;13.83;99.99
64198;SHT31;50512;53.666;9.700;2023-07-20T00:47:39;13.77;99.99
64198;SHT31;50512;53.666;9.700;2023-07-20T00:50:08;13.76;99.99
64198;SHT31;50512;53.666;9.700;2023-07-20T00:52:37;13.76;99.99
64198;SHT31;50512;53.666;9.700;2023-07-20T00:55:04;13.73;99.99
64198;SHT31;50512;53.666;9.700;2023-07-20T00:57:31;13.74;99.99
64198;SHT31;50512;53.666;9.700;2023-07-20T00:59:58;13.71;99.99
64198;SHT31;50512;53.666;9.700;2023-07-20T01:02:24;13.70;99.99
64198;SHT31;50512;53.666;9.700;2023-07-20T01:04:51;13.69;99.99
64198;SHT31;50512;53.666;9.700;2023-07-20T01:07:24;13.81;99.99
64198;SHT31;50512;53.666;9.700;2023-07-20T01:09:59;13.76;99.99
64198;SHT31;50512;53.666;9.700;2023-07-20T01:12:31;13.74;99.99
64198;SHT31;50512;53.666;9.700;2023-07-20T01:14:59;13.74;99.99
64198;SHT31;50512;53.666;9.700;2023-07-20T01:17:25;13.78;99.99
64198;SHT31;50512;53.666;9.700;2023-07-20T01:19:52;13.81;99.99
64198;SHT31;50512;53.666;9.700;2023-07-20T01:22:40;13.93;99.99
64198;SHT31;50512;53.666;9.700;2023-07-20T01:25:21;14.04;99.99
64198;SHT31;50512;53.666;9.700;2023-07-20T01:28:17;13.97;99.99
64198;SHT31;50512;53.666;9.700;2023-07-20T01:30:56;13.98;99.99
64198;SHT31;50512;53.666;9.700;2023-07-20T01:33:28;14.04;99.99
64198;SHT31;50512;53.666;9.700;2023-07-20T01:35:57;14.00;99.99
64198;SHT31;50512;53.666;9.700;2023-07-20T01:38:25;14.07;99.99
64198;SHT31;50512;53.666;9.700;2023-07-20T01:40:52;14.05;99.99
64198;SHT31;50512;53.666;9.700;2023-07-20T01:43:19;14.00;99.99
64198;SHT31;50512;53.666;9.700;2023-07-20T01:45:45;13.94;99.99
64198;SHT31;50512;53.666;9.700;2023-07-20T01:48:12;13.87;99.99
64198;SHT31;50512;53.666;9.700;2023-07-20T01:50:39;13.80;99.99
64198;SHT31;50512;53.666;9.700;2023-07-20T01:53:06;13.80;99.99
64198;SHT31;50512;53.666;9.700;2023-07-20T01:55:32;13.81;99.99
64198;SHT31;50512;53.666;9.700;2023-07-20T01:57:59;13.80;99.99
64198;SHT31;50512;53.666;9.700;2023-07-20T02:00:27;13.90;99.99
64198;SHT31;50512;53.666;9.700;2023-07-20T02:02:53;13.94;99.99
64198;SHT31;50512;53.666;9.700;2023-07-20T02:05:20;13.98;99.99
64198;SHT31;50512;53.666;9.700;2023-07-20T02:07:47;13.80;99.99
64198;SHT31;50512;53.666;9.700;2023-07-20T02:10:14;13.83;99.99
64198;SHT31;50512;53.666;9.700;2023-07-20T02:12:41;13.80;99.99
64198;SHT31;50512;53.666;9.700;2023-07-20T02:15:08;13.74;99.99
64198;SHT31;50512;53.666;9.700;2023-07-20T02:17:35;13.63;99.99
64198;SHT31;50512;53.666;9.700;2023-07-20T02:20:02;13.67;99.99
64198;SHT31;50512;53.666;9.700;2023-07-20T02:22:29;13.62;99.99
64198;SHT31;50512;53.666;9.700;2023-07-20T02:24:57;13.63;99.99
64198;SHT31;50512;53.666;9.700;2023-07-20T02:27:23;13.65;99.99
64198;SHT31;50512;53.666;9.700;2023-07-20T02:29:50;13.65;99.99
64198;SHT31;50512;53.666;9.700;2023-07-20T02:32:16;13.65;99.99
64198;SHT31;50512;53.666;9.700;2023-07-20T02:34:43;13.57;99.99
64198;SHT31;50512;53.666;9.700;2023-07-20T02:37:09;13.60;99.99
64198;SHT31;50512;53.666;9.700;2023-07-20T02:39:38;13.62;99.99
64198;SHT31;50512;53.666;9.700;2023-07-20T02:42:06;13.69;99.99
64198;SHT31;50512;53.666;9.700;2023-07-20T02:44:32;13.67;99.99
64198;SHT31;50512;53.666;9.700;2023-07-20T02:46:59;13.77;99.99
64198;SHT31;50512;53.666;9.700;2023-07-20T02:49:26;13.76;99.99
64198;SHT31;50512;53.666;9.700;2023-07-20T02:51:52;13.63;99.99
64198;SHT31;50512;53.666;9.700;2023-07-20T02:54:19;13.65;99.99
64198;SHT31;50512;53.666;9.700;2023-07-20T02:56:45;13.55;99.99
64198;SHT31;50512;53.666;9.700;2023-07-20T02:59:13;13.62;99.99
64198;SHT31;50512;53.666;9.700;2023-07-20T03:01:40;13.60;99.99
64198;SHT31;50512;53.666;9.700;2023-07-20T03:04:07;13.62;99.99
64198;SHT31;50512;53.666;9.700;2023-07-20T03:06:35;13.60;99.99
64198;SHT31;50512;53.666;9.700;2023-07-20T03:09:01;13.66;99.99
64198;SHT31;50512;53.666;9.700;2023-07-20T03:11:29;13.63;99.99
64198;SHT31;50512;53.666;9.700;2023-07-20T03:13:55;13.63;99.99
64198;SHT31;50512;53.666;9.700;2023-07-20T03:16:23;13.71;99.99
64198;SHT31;50512;53.666;9.700;2023-07-20T03:18:50;13.59;99.99
64198;SHT31;50512;53.666;9.700;2023-07-20T03:21:17;13.65;99.99
64198;SHT31;50512;53.666;9.700;2023-07-20T03:23:43;13.59;99.99
64198;SHT31;50512;53.666;9.700;2023-07-20T03:26:10;13.55;99.99
64198;SHT31;50512;53.666;9.700;2023-07-20T03:28:36;13.65;99.99
64198;SHT31;50512;53.666;9.700;2023-07-20T03:31:03;13.69;99.99
64198;SHT31;50512;53.666;9.700;2023-07-20T03:33:31;13.65;99.99
64198;SHT31;50512;53.666;9.700;2023-07-20T03:35:58;13.59;99.99
64198;SHT31;50512;53.666;9.700;2023-07-20T03:38:26;13.53;99.99
64198;SHT31;50512;53.666;9.700;2023-07-20T03:40:54;13.43;99.99
64198;SHT31;50512;53.666;9.700;2023-07-20T03:43:21;13.45;99.99
64198;SHT31;50512;53.666;9.700;2023-07-20T03:45:48;13.53;99.99
64198;SHT31;50512;53.666;9.700;2023-07-20T03:48:15;13.46;99.99
64198;SHT31;50512;53.666;9.700;2023-07-20T03:50:44;13.49;99.99
64198;SHT31;50512;53.666;9.700;2023-07-20T03:53:11;13.46;99.99
64198;SHT31;50512;53.666;9.700;2023-07-20T03:55:37;13.50;99.99
64198;SHT31;50512;53.666;9.700;2023-07-20T03:58:05;13.49;99.99
64198;SHT31;50512;53.666;9.700;2023-07-20T04:00:32;13.52;99.99
64198;SHT31;50512;53.666;9.700;2023-07-20T04:02:58;13.47;99.99
64198;SHT31;50512;53.666;9.700;2023-07-20T04:05:25;13.55;99.99
64198;SHT31;50512;53.666;9.700;2023-07-20T04:07:53;13.45;99.99
64198;SHT31;50512;53.666;9.700;2023-07-20T04:10:19;13.49;99.99
64198;SHT31;50512;53.666;9.700;2023-07-20T04:12:46;13.49;99.99
64198;SHT31;50512;53.666;9.700;2023-07-20T04:15:13;13.30;99.99
64198;SHT31;50512;53.666;9.700;2023-07-20T04:17:39;13.28;99.99
64198;SHT31;50512;53.666;9.700;2023-07-20T04:20:07;13.34;99.99
64198;SHT31;50512;53.666;9.700;2023-07-20T04:22:33;13.35;99.99
64198;SHT31;50512;53.666;9.700;2023-07-20T04:25:01;13.29;99.99
64198;SHT31;50512;53.666;9.700;2023-07-20T04:27:27;13.39;99.99
64198;SHT31;50512;53.666;9.700;2023-07-20T04:29:54;13.42;99.99
64198;SHT31;50512;53.666;9.700;2023-07-20T04:32:20;13.40;99.99
64198;SHT31;50512;53.666;9.700;2023-07-20T04:34:47;13.39;99.99
64198;SHT31;50512;53.666;9.700;2023-07-20T04:37:13;13.36;99.99
64198;SHT31;50512;53.666;9.700;2023-07-20T04:39:40;13.40;99.99
64198;SHT31;50512;53.666;9.700;2023-07-20T04:42:08;13.46;99.99
64198;SHT31;50512;53.666;9.700;2023-07-20T04:44:34;13.50;99.99
64198;SHT31;50512;53.666;9.700;2023-07-20T04:47:01;13.50;99.99
64198;SHT31;50512;53.666;9.700;2023-07-20T04:49:27;13.53;99.99
64198;SHT31;50512;53.666;9.700;2023-07-20T04:51:54;13.57;99.99
64198;SHT31;50512;53.666;9.700;2023-07-20T04:54:20;13.65;99.99
64198;SHT31;50512;53.666;9.700;2023-07-20T04:56:47;13.67;99.99
64198;SHT31;50512;53.666;9.700;2023-07-20T04:59:14;13.73;99.99
64198;SHT31;50512;53.666;9.700;2023-07-20T05:01:41;13.80;99.99
64198;SHT31;50512;53.666;9.700;2023-07-20T05:04:07;13.91;99.99
64198;SHT31;50512;53.666;9.700;2023-07-20T05:06:34;13.87;99.99
64198;SHT31;50512;53.666;9.700;2023-07-20T05:09:00;13.94;99.99
64198;SHT31;50512;53.666;9.700;2023-07-20T05:11:27;14.01;99.99
64198;SHT31;50512;53.666;9.700;2023-07-20T05:13:53;14.10;99.99
64198;SHT31;50512;53.666;9.700;2023-07-20T05:16:21;14.19;99.99
64198;SHT31;50512;53.666;9.700;2023-07-20T05:18:48;14.22;99.99
64198;SHT31;50512;53.666;9.700;2023-07-20T05:21:14;14.31;99.99
64198;SHT31;50512;53.666;9.700;2023-07-20T05:23:40;14.38;99.99
64198;SHT31;50512;53.666;9.700;2023-07-20T05:26:07;14.39;99.99
64198;SHT31;50512;53.666;9.700;2023-07-20T05:28:34;14.46;99.66
64198;SHT31;50512;53.666;9.700;2023-07-20T05:31:02;14.56;99.72
64198;SHT31;50512;53.666;9.700;2023-07-20T05:33:30;14.63;99.77
64198;SHT31;50512;53.666;9.700;2023-07-20T05:35:57;14.80;99.67
64198;SHT31;50512;53.666;9.700;2023-07-20T05:38:23;14.86;99.68
64198;SHT31;50512;53.666;9.700;2023-07-20T05:40:50;14.97;99.43
64198;SHT31;50512;53.666;9.700;2023-07-20T05:43:16;15.05;98.98
64198;SHT31;50512;53.666;9.700;2023-07-20T05:45:43;15.00;97.94
64198;SHT31;50512;53.666;9.700;2023-07-20T05:48:10;15.10;96.81
64198;SHT31;50512;53.666;9.700;2023-07-20T05:50:41;15.21;96.35
64198;SHT31;50512;53.666;9.700;2023-07-20T05:53:08;15.35;96.64
64198;SHT31;50512;53.666;9.700;2023-07-20T05:55:34;15.52;96.07
64198;SHT31;50512;53.666;9.700;2023-07-20T05:58:01;15.70;95.65
64198;SHT31;50512;53.666;9.700;2023-07-20T06:00:29;15.76;95.56
64198;SHT31;50512;53.666;9.700;2023-07-20T06:02:55;15.77;95.15
64198;SHT31;50512;53.666;9.700;2023-07-20T06:05:22;15.74;93.69
64198;SHT31;50512;53.666;9.700;2023-07-20T06:07:50;15.59;94.20
64198;SHT31;50512;53.666;9.700;2023-07-20T06:10:16;15.63;94.50
64198;SHT31;50512;53.666;9.700;2023-07-20T06:12:43;15.67;93.80
64198;SHT31;50512;53.666;9.700;2023-07-20T06:15:24;15.83;93.72
64198;SHT31;50512;53.666;9.700;2023-07-20T06:17:51;15.90;93.14
64198;SHT31;50512;53.666;9.700;2023-07-20T06:20:17;15.93;93.13
64198;SHT31;50512;53.666;9.700;2023-07-20T06:22:44;15.82;91.85
64198;SHT31;50512;53.666;9.700;2023-07-20T06:25:12;15.91;92.59
64198;SHT31;50512;53.666;9.700;2023-07-20T06:27:38;15.87;93.31
64198;SHT31;50512;53.666;9.700;2023-07-20T06:30:06;15.93;92.86
64198;SHT31;50512;53.666;9.700;2023-07-20T06:32:33;15.97;93.58
64198;SHT31;50512;53.666;9.700;2023-07-20T06:34:59;16.00;91.94
64198;SHT31;50512;53.666;9.700;2023-07-20T06:37:26;16.01;90.49
64198;SHT31;50512;53.666;9.700;2023-07-20T06:39:52;16.07;90.66
64198;SHT31;50512;53.666;9.700;2023-07-20T06:42:20;16.15;90.81
64198;SHT31;50512;53.666;9.700;2023-07-20T06:44:46;16.20;89.68
64198;SHT31;50512;53.666;9.700;2023-07-20T06:47:13;16.33;89.30
64198;SHT31;50512;53.666;9.700;2023-07-20T06:49:39;16.51;87.61
64198;SHT31;50512;53.666;9.700;2023-07-20T06:52:06;16.72;87.69
64198;SHT31;50512;53.666;9.700;2023-07-20T06:54:33;16.90;89.30
64198;SHT31;50512;53.666;9.700;2023-07-20T06:56:59;16.88;88.78
64198;SHT31;50512;53.666;9.700;2023-07-20T06:59:27;16.97;87.63
64198;SHT31;50512;53.666;9.700;2023-07-20T07:01:54;16.96;88.52
64198;SHT31;50512;53.666;9.700;2023-07-20T07:04:21;16.93;87.02
64198;SHT31;50512;53.666;9.700;2023-07-20T07:06:47;16.80;85.46
64198;SHT31;50512;53.666;9.700;2023-07-20T07:09:14;16.53;86.25
64198;SHT31;50512;53.666;9.700;2023-07-20T07:11:40;16.41;87.37
64198;SHT31;50512;53.666;9.700;2023-07-20T07:14:07;16.11;87.72
64198;SHT31;50512;53.666;9.700;2023-07-20T07:16:35;16.20;89.68
64198;SHT31;50512;53.666;9.700;2023-07-20T07:19:01;16.47;88.33
64198;SHT31;50512;53.666;9.700;2023-07-20T07:21:28;16.87;87.80
64198;SHT31;50512;53.666;9.700;2023-07-20T07:23:55;17.06;84.21
64198;SHT31;50512;53.666;9.700;2023-07-20T07:26:22;17.06;83.91
64198;SHT31;50512;53.666;9.700;2023-07-20T07:28:49;17.08;84.42
64198;SHT31;50512;53.666;9.700;2023-07-20T07:31:15;16.93;84.77
64198;SHT31;50512;53.666;9.700;2023-07-20T07:33:43;17.08;83.60
64198;SHT31;50512;53.666;9.700;2023-07-20T07:36:09;17.32;82.67
64198;SHT31;50512;53.666;9.700;2023-07-20T07:38:36;17.69;81.36
64198;SHT31;50512;53.666;9.700;2023-07-20T07:41:02;18.45;78.60
64198;SHT31;50512;53.666;9.700;2023-07-20T07:43:29;18.68;77.57
64198;SHT31;50512;53.666;9.700;2023-07-20T07:45:55;18.82;78.14
64198;SHT31;50512;53.666;9.700;2023-07-20T07:48:22;18.70;78.53
64198;SHT31;50512;53.666;9.700;2023-07-20T07:50:51;18.59;78.23
64198;SHT31;50512;53.666;9.700;2023-07-20T07:53:18;19.14;77.34
64198;SHT31;50512;53.666;9.700;2023-07-20T07:55:45;19.86;72.40
64198;SHT31;50512;53.666;9.700;2023-07-20T07:58:13;20.26;72.46
64198;SHT31;50512;53.666;9.700;2023-07-20T08:00:40;20.67;70.81
64198;SHT31;50512;53.666;9.700;2023-07-20T08:03:06;21.04;70.12
64198;SHT31;50512;53.666;9.700;2023-07-20T08:05:33;20.88;70.66
64198;SHT31;50512;53.666;9.700;2023-07-20T08:08:01;21.00;69.76
64198;SHT31;50512;53.666;9.700;2023-07-20T08:10:28;21.28;66.56
64198;SHT31;50512;53.666;9.700;2023-07-20T08:12:55;20.20;69.89
64198;SHT31;50512;53.666;9.700;2023-07-20T08:15:22;20.65;70.74
64198;SHT31;50512;53.666;9.700;2023-07-20T08:17:48;20.03;70.40
64198;SHT31;50512;53.666;9.700;2023-07-20T08:20:16;19.82;71.69
64198;SHT31;50512;53.666;9.700;2023-07-20T08:22:43;20.23;68.49
64198;SHT31;50512;53.666;9.700;2023-07-20T08:25:11;20.27;66.24
64198;SHT31;50512;53.666;9.700;2023-07-20T08:27:37;20.82;65.98
64198;SHT31;50512;53.666;9.700;2023-07-20T08:30:05;21.27;66.89
64198;SHT31;50512;53.666;9.700;2023-07-20T08:32:32;22.03;64.92
64198;SHT31;50512;53.666;9.700;2023-07-20T08:34:58;21.53;64.95
64198;SHT31;50512;53.666;9.700;2023-07-20T08:37:25;21.04;66.73
64198;SHT31;50512;53.666;9.700;2023-07-20T08:39:52;19.65;71.21
64198;SHT31;50512;53.666;9.700;2023-07-20T08:42:20;19.38;70.73
64198;SHT31;50512;53.666;9.700;2023-07-20T08:44:49;19.79;69.65
64198;SHT31;50512;53.666;9.700;2023-07-20T08:47:18;20.26;68.38
64198;SHT31;50512;53.666;9.700;2023-07-20T08:49:48;20.85;65.97
64198;SHT31;50512;53.666;9.700;2023-07-20T08:52:15;20.41;68.07
64198;SHT31;50512;53.666;9.700;2023-07-20T08:54:41;19.45;70.30
64198;SHT31;50512;53.666;9.700;2023-07-20T08:57:08;18.80;74.37
64198;SHT31;50512;53.666;9.700;2023-07-20T08:59:36;17.91;78.50
64198;SHT31;50512;53.666;9.700;2023-07-20T09:02:04;17.52;80.30
64198;SHT31;50512;53.666;9.700;2023-07-20T09:04:32;17.61;80.67
64198;SHT31;50512;53.666;9.700;2023-07-20T09:06:58;17.52;80.32
64198;SHT31;50512;53.666;9.700;2023-07-20T09:09:25;17.69;79.68
64198;SHT31;50512;53.666;9.700;2023-07-20T09:11:51;17.98;79.96
64198;SHT31;50512;53.666;9.700;2023-07-20T09:14:18;18.17;80.34
64198;SHT31;50512;53.666;9.700;2023-07-20T09:16:50;18.59;78.72
64198;SHT31;50512;53.666;9.700;2023-07-20T09:19:17;18.58;73.60
64198;SHT31;50512;53.666;9.700;2023-07-20T09:21:46;19.04;76.00
64198;SHT31;50512;53.666;9.700;2023-07-20T09:24:13;19.18;75.03
64198;SHT31;50512;53.666;9.700;2023-07-20T09:26:43;19.42;73.54
64198;SHT31;50512;53.666;9.700;2023-07-20T09:29:10;19.72;74.62
64198;SHT31;50512;53.666;9.700;2023-07-20T09:31:37;19.51;72.41
64198;SHT31;50512;53.666;9.700;2023-07-20T09:34:06;19.79;72.79
64198;SHT31;50512;53.666;9.700;2023-07-20T09:36:33;20.30;71.28
64198;SHT31;50512;53.666;9.700;2023-07-20T09:39:00;20.49;72.86
64198;SHT31;50512;53.666;9.700;2023-07-20T09:41:27;20.54;71.33
64198;SHT31;50512;53.666;9.700;2023-07-20T09:43:54;20.52;70.34
64198;SHT31;50512;53.666;9.700;2023-07-20T09:46:20;20.73;69.22
64198;SHT31;50512;53.666;9.700;2023-07-20T09:48:51;20.41;69.93
64198;SHT31;50512;53.666;9.700;2023-07-20T09:51:21;20.44;67.93
64198;SHT31;50512;53.666;9.700;2023-07-20T09:53:48;20.47;68.71
64198;SHT31;50512;53.666;9.700;2023-07-20T09:56:16;20.51;67.81
64198;SHT31;50512;53.666;9.700;2023-07-20T09:58:43;20.17;69.72
64198;SHT31;50512;53.666;9.700;2023-07-20T10:01:11;19.52;69.98
64198;SHT31;50512;53.666;9.700;2023-07-20T10:03:41;19.21;70.61
64198;SHT31;50512;53.666;9.700;2023-07-20T10:06:15;19.45;71.38
64198;SHT31;50512;53.666;9.700;2023-07-20T10:08:45;19.75;69.61
64198;SHT31;50512;53.666;9.700;2023-07-20T10:11:15;19.83;70.10
64198;SHT31;50512;53.666;9.700;2023-07-20T10:13:43;19.78;70.89
64198;SHT31;50512;53.666;9.700;2023-07-20T10:16:11;19.27;71.36
64198;SHT31;50512;53.666;9.700;2023-07-20T10:18:41;18.92;71.77
64198;SHT31;50512;53.666;9.700;2023-07-20T10:21:11;18.55;73.17
64198;SHT31;50512;53.666;9.700;2023-07-20T10:23:38;18.75;72.75
64198;SHT31;50512;53.666;9.700;2023-07-20T10:26:07;19.21;72.97
64198;SHT31;50512;53.666;9.700;2023-07-20T10:28:33;19.59;72.34
64198;SHT31;50512;53.666;9.700;2023-07-20T10:31:00;19.69;71.02
64198;SHT31;50512;53.666;9.700;2023-07-20T10:33:27;19.65;69.70
64198;SHT31;50512;53.666;9.700;2023-07-20T10:35:54;19.79;69.41
64198;SHT31;50512;53.666;9.700;2023-07-20T10:38:39;19.32;68.28
64198;SHT31;50512;53.666;9.700;2023-07-20T10:41:17;18.86;71.18
64198;SHT31;50512;53.666;9.700;2023-07-20T10:43:44;18.97;72.38
64198;SHT31;50512;53.666;9.700;2023-07-20T10:46:12;19.38;72.86
64198;SHT31;50512;53.666;9.700;2023-07-20T10:49:00;19.72;74.21
64198;SHT31;50512;53.666;9.700;2023-07-20T10:51:27;19.69;73.30
64198;SHT31;50512;53.666;9.700;2023-07-20T10:53:54;19.75;71.56
64198;SHT31;50512;53.666;9.700;2023-07-20T10:56:26;19.73;71.46
64198;SHT31;50512;53.666;9.700;2023-07-20T10:58:56;19.71;69.88
64198;SHT31;50512;53.666;9.700;2023-07-20T11:01:28;19.72;69.06
64198;SHT31;50512;53.666;9.700;2023-07-20T11:03:57;19.83;67.88
64198;SHT31;50512;53.666;9.700;2023-07-20T11:06:31;19.78;67.73
64198;SHT31;50512;53.666;9.700;2023-07-20T11:09:04;19.83;69.99
64198;SHT31;50512;53.666;9.700;2023-07-20T11:11:34;19.94;68.27
64198;SHT31;50512;53.666;9.700;2023-07-20T11:14:02;19.86;68.15
64198;SHT31;50512;53.666;9.700;2023-07-20T11:16:34;19.79;70.12
64198;SHT31;50512;53.666;9.700;2023-07-20T11:19:00;19.69;70.93
64198;SHT31;50512;53.666;9.700;2023-07-20T11:21:27;19.72;71.49
64198;SHT31;50512;53.666;9.700;2023-07-20T11:23:55;20.18;72.28
64198;SHT31;50512;53.666;9.700;2023-07-20T11:26:21;20.17;71.86
64198;SHT31;50512;53.666;9.700;2023-07-20T11:28:50;20.31;70.89
64198;SHT31;50512;53.666;9.700;2023-07-20T11:31:17;20.38;71.56
64198;SHT31;50512;53.666;9.700;2023-07-20T11:33:44;20.30;70.93
64198;SHT31;50512;53.666;9.700;2023-07-20T11:36:11;20.17;70.91
64198;SHT31;50512;53.666;9.700;2023-07-20T11:38:38;20.01;71.35
64198;SHT31;50512;53.666;9.700;2023-07-20T11:41:05;20.34;69.59
64198;SHT31;50512;53.666;9.700;2023-07-20T11:43:32;20.24;70.54
64198;SHT31;50512;53.666;9.700;2023-07-20T11:45:59;20.45;70.57
64198;SHT31;50512;53.666;9.700;2023-07-20T11:48:26;20.34;70.53
64198;SHT31;50512;53.666;9.700;2023-07-20T11:50:53;20.06;69.46
64198;SHT31;50512;53.666;9.700;2023-07-20T11:53:19;19.96;68.87
64198;SHT31;50512;53.666;9.700;2023-07-20T11:55:47;19.42;70.04
64198;SHT31;50512;53.666;9.700;2023-07-20T11:58:13;19.44;70.41
64198;SHT31;50512;53.666;9.700;2023-07-20T12:00:44;19.31;70.25
64198;SHT31;50512;53.666;9.700;2023-07-20T12:03:12;19.34;68.50
64198;SHT31;50512;53.666;9.700;2023-07-20T12:05:38;19.30;69.25
64198;SHT31;50512;53.666;9.700;2023-07-20T12:08:05;19.17;69.49
64198;SHT31;50512;53.666;9.700;2023-07-20T12:10:32;19.47;69.61
64198;SHT31;50512;53.666;9.700;2023-07-20T12:13:01;19.69;69.76
64198;SHT31;50512;53.666;9.700;2023-07-20T12:15:28;19.82;69.42
64198;SHT31;50512;53.666;9.700;2023-07-20T12:17:58;19.94;69.20
64198;SHT31;50512;53.666;9.700;2023-07-20T12:20:28;20.13;66.97
64198;SHT31;50512;53.666;9.700;2023-07-20T12:23:00;20.31;67.39
64198;SHT31;50512;53.666;9.700;2023-07-20T12:25:36;20.43;67.63
64198;SHT31;50512;53.666;9.700;2023-07-20T12:28:04;20.44;64.78
64198;SHT31;50512;53.666;9.700;2023-07-20T12:30:31;20.30;63.64
64198;SHT31;50512;53.666;9.700;2023-07-20T12:32:58;20.41;65.66
64198;SHT31;50512;53.666;9.700;2023-07-20T12:35:25;20.43;64.22
64198;SHT31;50512;53.666;9.700;2023-07-20T12:37:52;20.44;61.84
64198;SHT31;50512;53.666;9.700;2023-07-20T12:40:19;20.18;63.47
64198;SHT31;50512;53.666;9.700;2023-07-20T12:42:46;19.80;65.12
64198;SHT31;50512;53.666;9.700;2023-07-20T12:45:12;19.93;66.63
64198;SHT31;50512;53.666;9.700;2023-07-20T12:47:39;20.06;64.27
64198;SHT31;50512;53.666;9.700;2023-07-20T12:50:06;20.18;63.28
64198;SHT31;50512;53.666;9.700;2023-07-20T12:52:36;20.43;65.97
64198;SHT31;50512;53.666;9.700;2023-07-20T12:55:05;20.40;64.54
64198;SHT31;50512;53.666;9.700;2023-07-20T12:57:33;20.43;66.07
64198;SHT31;50512;53.666;9.700;2023-07-20T12:59:59;20.18;64.96
64198;SHT31;50512;53.666;9.700;2023-07-20T13:02:26;20.28;66.57
64198;SHT31;50512;53.666;9.700;2023-07-20T13:04:52;20.26;64.60
64198;SHT31;50512;53.666;9.700;2023-07-20T13:07:29;20.31;65.70
64198;SHT31;50512;53.666;9.700;2023-07-20T13:09:55;20.31;67.14
64198;SHT31;50512;53.666;9.700;2023-07-20T13:12:23;20.49;67.56
64198;SHT31;50512;53.666;9.700;2023-07-20T13:14:50;20.55;68.11
64198;SHT31;50512;53.666;9.700;2023-07-20T13:17:16;20.51;68.13
64198;SHT31;50512;53.666;9.700;2023-07-20T13:19:42;20.33;69.11
64198;SHT31;50512;53.666;9.700;2023-07-20T13:22:09;20.51;68.10
64198;SHT31;50512;53.666;9.700;2023-07-20T13:24:36;20.45;66.59
64198;SHT31;50512;53.666;9.700;2023-07-20T13:27:03;20.35;67.67
64198;SHT31;50512;53.666;9.700;2023-07-20T13:29:31;20.45;68.47
64198;SHT31;50512;53.666;9.700;2023-07-20T13:31:58;20.76;68.82
64198;SHT31;50512;53.666;9.700;2023-07-20T13:34:25;20.69;66.72
64198;SHT31;50512;53.666;9.700;2023-07-20T13:36:52;20.81;67.10
64198;SHT31;50512;53.666;9.700;2023-07-20T13:39:18;20.95;67.74
64198;SHT31;50512;53.666;9.700;2023-07-20T13:41:45;20.88;66.37
64198;SHT31;50512;53.666;9.700;2023-07-20T13:44:11;21.04;64.98
64198;SHT31;50512;53.666;9.700;2023-07-20T13:46:39;21.11;66.35
64198;SHT31;50512;53.666;9.700;2023-07-20T13:49:06;21.06;63.25
64198;SHT31;50512;53.666;9.700;2023-07-20T13:51:32;21.00;63.33
64198;SHT31;50512;53.666;9.700;2023-07-20T13:53:59;20.85;64.19
64198;SHT31;50512;53.666;9.700;2023-07-20T13:56:26;20.92;66.03
64198;SHT31;50512;53.666;9.700;2023-07-20T13:58:53;20.69;64.96
64198;SHT31;50512;53.666;9.700;2023-07-20T14:01:19;20.75;65.00
64198;SHT31;50512;53.666;9.700;2023-07-20T14:03:49;20.54;65.62
64198;SHT31;50512;53.666;9.700;2023-07-20T14:06:16;20.59;65.56
64198;SHT31;50512;53.666;9.700;2023-07-20T14:08:43;20.59;64.54
64198;SHT31;50512;53.666;9.700;2023-07-20T14:11:11;20.81;64.91
64198;SHT31;50512;53.666;9.700;2023-07-20T14:13:38;20.93;64.96
64198;SHT31;50512;53.666;9.700;2023-07-20T14:16:04;20.85;64.67
64198;SHT31;50512;53.666;9.700;2023-07-20T14:18:31;20.95;65.68
64198;SHT31;50512;53.666;9.700;2023-07-20T14:20:59;21.02;64.61
64198;SHT31;50512;53.666;9.700;2023-07-20T14:23:27;20.68;63.36
64198;SHT31;50512;53.666;9.700;2023-07-20T14:25:54;20.43;64.48
64198;SHT31;50512;53.666;9.700;2023-07-20T14:28:20;20.30;65.92
64198;SHT31;50512;53.666;9.700;2023-07-20T14:30:47;20.34;66.37
64198;SHT31;50512;53.666;9.700;2023-07-20T14:33:13;20.09;67.17
64198;SHT31;50512;53.666;9.700;2023-07-20T14:35:40;20.33;68.25
64198;SHT31;50512;53.666;9.700;2023-07-20T14:38:07;20.10;67.50
64198;SHT31;50512;53.666;9.700;2023-07-20T14:40:35;19.75;69.05
64198;SHT31;50512;53.666;9.700;2023-07-20T14:43:01;19.04;68.18
64198;SHT31;50512;53.666;9.700;2023-07-20T14:45:28;19.06;70.32
64198;SHT31;50512;53.666;9.700;2023-07-20T14:47:55;19.13;70.15
64198;SHT31;50512;53.666;9.700;2023-07-20T14:50:21;19.21;69.88
64198;SHT31;50512;53.666;9.700;2023-07-20T14:52:48;19.41;68.56
64198;SHT31;50512;53.666;9.700;2023-07-20T14:55:16;19.58;67.80
64198;SHT31;50512;53.666;9.700;2023-07-20T14:57:42;19.75;63.91
64198;SHT31;50512;53.666;9.700;2023-07-20T15:00:10;19.83;66.20
64198;SHT31;50512;53.666;9.700;2023-07-20T15:02:36;20.01;64.39
64198;SHT31;50512;53.666;9.700;2023-07-20T15:05:07;19.97;64.52
64198;SHT31;50512;53.666;9.700;2023-07-20T15:07:33;20.00;66.45
64198;SHT31;50512;53.666;9.700;2023-07-20T15:10:00;20.13;65.45
64198;SHT31;50512;53.666;9.700;2023-07-20T15:12:27;20.17;65.26
64198;SHT31;50512;53.666;9.700;2023-07-20T15:15:03;20.21;64.30
64198;SHT31;50512;53.666;9.700;2023-07-20T15:17:30;20.06;65.50
64198;SHT31;50512;53.666;9.700;2023-07-20T15:19:57;20.05;64.46
64198;SHT31;50512;53.666;9.700;2023-07-20T15:22:24;20.13;64.64
64198;SHT31;50512;53.666;9.700;2023-07-20T15:24:51;19.97;64.98
64198;SHT31;50512;53.666;9.700;2023-07-20T15:27:17;20.00;65.97
64198;SHT31;50512;53.666;9.700;2023-07-20T15:29:48;19.99;66.25
64198;SHT31;50512;53.666;9.700;2023-07-20T15:32:14;20.17;68.09